sensor_id;sensor_type;location;lat;lon;timestamp;P1;durP1;ratioP1;P2;durP2;ratioP2
75152;SDS011;63734;45.218;36.708;2022-12-29T00:02:08;14.38;;;6.05;;
75152;SDS011;63734;45.218;36.708;2022-12-29T00:04:35;13.93;;;5.85;;
75152;SDS011;63734;45.218;36.708;2022-12-29T00:07:01;12.55;;;5.25;;
75152;SDS011;63734;45.218;36.708;2022-12-29T00:09:30;14.05;;;6.13;;
75152;SDS011;63734;45.218;36.708;2022-12-29T00:11:57;14.57;;;6.38;;
75152;SDS011;63734;45.218;36.708;2022-12-29T00:14:23;17.58;;;7.22;;
75152;SDS011;63734;45.218;36.708;2022-12-29T00:17:07;14.15;;;6.50;;
75152;SDS011;63734;45.218;36.708;2022-12-29T00:19:34;14.63;;;6.53;;
75152;SDS011;63734;45.218;36.708;2022-12-29T00:22:18;14.93;;;6.35;;
75152;SDS011;63734;45.218;36.708;2022-12-29T00:25:03;34.75;;;5.93;;
75152;SDS011;63734;45.218;36.708;2022-12-29T00:27:48;34.72;;;8.55;;
75152;SDS011;63734;45.218;36.708;2022-12-29T00:30:33;42.70;;;8.43;;
75152;SDS011;63734;45.218;36.708;2022-12-29T00:33:19;65.25;;;8.93;;
75152;SDS011;63734;45.218;36.708;2022-12-29T00:38:38;26.25;;;5.40;;
75152;SDS011;63734;45.218;36.708;2022-12-29T00:41:26;15.52;;;5.30;;
75152;SDS011;63734;45.218;36.708;2022-12-29T00:44:21;42.53;;;7.28;;
75152;SDS011;63734;45.218;36.708;2022-12-29T00:46:47;25.90;;;5.38;;
75152;SDS011;63734;45.218;36.708;2022-12-29T00:49:13;37.60;;;6.88;;
75152;SDS011;63734;45.218;36.708;2022-12-29T00:54:36;79.53;;;10.05;;
75152;SDS011;63734;45.218;36.708;2022-12-29T00:57:04;83.45;;;9.00;;
75152;SDS011;63734;45.218;36.708;2022-12-29T00:59:32;33.25;;;7.38;;
75152;SDS011;63734;45.218;36.708;2022-12-29T01:02:00;36.75;;;7.60;;
75152;SDS011;63734;45.218;36.708;2022-12-29T01:04:27;82.22;;;10.45;;
75152;SDS011;63734;45.218;36.708;2022-12-29T01:06:54;96.72;;;8.77;;
75152;SDS011;63734;45.218;36.708;2022-12-29T01:09:19;29.02;;;5.95;;
75152;SDS011;63734;45.218;36.708;2022-12-29T01:12:05;62.72;;;9.45;;
75152;SDS011;63734;45.218;36.708;2022-12-29T01:14:33;47.38;;;7.78;;
75152;SDS011;63734;45.218;36.708;2022-12-29T01:17:00;115.95;;;12.82;;
75152;SDS011;63734;45.218;36.708;2022-12-29T01:19:26;90.35;;;11.82;;
75152;SDS011;63734;45.218;36.708;2022-12-29T01:21:54;37.25;;;7.45;;
75152;SDS011;63734;45.218;36.708;2022-12-29T01:24:20;30.95;;;9.93;;
75152;SDS011;63734;45.218;36.708;2022-12-29T01:26:47;31.90;;;8.95;;
75152;SDS011;63734;45.218;36.708;2022-12-29T01:29:15;51.25;;;7.85;;
75152;SDS011;63734;45.218;36.708;2022-12-29T01:31:44;26.92;;;8.15;;
75152;SDS011;63734;45.218;36.708;2022-12-29T01:34:10;17.63;;;7.50;;
75152;SDS011;63734;45.218;36.708;2022-12-29T01:36:37;11.75;;;5.82;;
75152;SDS011;63734;45.218;36.708;2022-12-29T01:39:03;17.33;;;8.40;;
75152;SDS011;63734;45.218;36.708;2022-12-29T01:41:29;24.77;;;8.63;;
75152;SDS011;63734;45.218;36.708;2022-12-29T01:43:57;21.25;;;8.10;;
75152;SDS011;63734;45.218;36.708;2022-12-29T01:46:38;12.75;;;6.05;;
75152;SDS011;63734;45.218;36.708;2022-12-29T01:49:23;18.63;;;6.80;;
75152;SDS011;63734;45.218;36.708;2022-12-29T01:52:02;19.73;;;8.02;;
75152;SDS011;63734;45.218;36.708;2022-12-29T01:54:34;20.13;;;8.45;;
75152;SDS011;63734;45.218;36.708;2022-12-29T01:57:21;20.80;;;8.27;;
75152;SDS011;63734;45.218;36.708;2022-12-29T01:59:56;20.35;;;9.05;;
75152;SDS011;63734;45.218;36.708;2022-12-29T02:02:42;19.55;;;8.07;;
75152;SDS011;63734;45.218;36.708;2022-12-29T02:05:32;20.63;;;8.00;;
75152;SDS011;63734;45.218;36.708;2022-12-29T02:08:03;20.75;;;8.65;;
75152;SDS011;63734;45.218;36.708;2022-12-29T02:10:30;18.42;;;8.43;;
75152;SDS011;63734;45.218;36.708;2022-12-29T02:12:58;19.35;;;8.60;;
75152;SDS011;63734;45.218;36.708;2022-12-29T02:15:34;17.70;;;7.53;;
75152;SDS011;63734;45.218;36.708;2022-12-29T02:24:30;24.25;;;9.45;;
75152;SDS011;63734;45.218;36.708;2022-12-29T02:35:09;25.85;;;6.93;;
75152;SDS011;63734;45.218;36.708;2022-12-29T02:43:24;31.70;;;8.30;;
75152;SDS011;63734;45.218;36.708;2022-12-29T02:45:56;81.40;;;9.85;;
75152;SDS011;63734;45.218;36.708;2022-12-29T02:48:48;41.22;;;9.90;;
75152;SDS011;63734;45.218;36.708;2022-12-29T02:51:23;36.22;;;8.57;;
75152;SDS011;63734;45.218;36.708;2022-12-29T02:53:54;25.48;;;9.32;;
75152;SDS011;63734;45.218;36.708;2022-12-29T02:56:40;44.33;;;9.32;;
75152;SDS011;63734;45.218;36.708;2022-12-29T02:59:06;46.40;;;9.93;;
75152;SDS011;63734;45.218;36.708;2022-12-29T03:01:37;61.13;;;8.15;;
75152;SDS011;63734;45.218;36.708;2022-12-29T03:07:19;60.60;;;8.60;;
75152;SDS011;63734;45.218;36.708;2022-12-29T03:10:00;78.85;;;9.55;;
75152;SDS011;63734;45.218;36.708;2022-12-29T03:15:42;66.82;;;9.73;;
75152;SDS011;63734;45.218;36.708;2022-12-29T03:24:17;67.75;;;12.40;;
75152;SDS011;63734;45.218;36.708;2022-12-29T03:26:46;86.00;;;11.23;;
75152;SDS011;63734;45.218;36.708;2022-12-29T03:29:17;98.30;;;9.70;;
75152;SDS011;63734;45.218;36.708;2022-12-29T03:31:47;31.27;;;3.60;;
75152;SDS011;63734;45.218;36.708;2022-12-29T03:34:15;14.70;;;4.50;;
75152;SDS011;63734;45.218;36.708;2022-12-29T03:36:53;47.42;;;6.00;;
75152;SDS011;63734;45.218;36.708;2022-12-29T03:39:24;36.92;;;7.15;;
75152;SDS011;63734;45.218;36.708;2022-12-29T03:41:54;53.88;;;8.75;;
75152;SDS011;63734;45.218;36.708;2022-12-29T03:44:37;49.22;;;9.05;;
75152;SDS011;63734;45.218;36.708;2022-12-29T03:47:09;28.45;;;6.88;;
75152;SDS011;63734;45.218;36.708;2022-12-29T03:49:36;39.65;;;6.78;;
75152;SDS011;63734;45.218;36.708;2022-12-29T03:52:03;25.00;;;7.30;;
75152;SDS011;63734;45.218;36.708;2022-12-29T03:54:33;31.05;;;7.32;;
75152;SDS011;63734;45.218;36.708;2022-12-29T03:56:59;153.43;;;12.95;;
75152;SDS011;63734;45.218;36.708;2022-12-29T03:59:51;38.75;;;7.78;;
75152;SDS011;63734;45.218;36.708;2022-12-29T04:02:17;34.05;;;7.70;;
75152;SDS011;63734;45.218;36.708;2022-12-29T04:04:43;56.45;;;9.05;;
75152;SDS011;63734;45.218;36.708;2022-12-29T04:07:09;45.17;;;7.13;;
75152;SDS011;63734;45.218;36.708;2022-12-29T04:09:35;25.98;;;6.53;;
75152;SDS011;63734;45.218;36.708;2022-12-29T04:12:01;29.52;;;6.55;;
75152;SDS011;63734;45.218;36.708;2022-12-29T04:14:28;19.95;;;6.68;;
75152;SDS011;63734;45.218;36.708;2022-12-29T04:16:55;29.80;;;6.88;;
75152;SDS011;63734;45.218;36.708;2022-12-29T04:19:22;16.63;;;6.32;;
75152;SDS011;63734;45.218;36.708;2022-12-29T04:21:48;16.30;;;6.25;;
75152;SDS011;63734;45.218;36.708;2022-12-29T04:24:15;14.90;;;7.13;;
75152;SDS011;63734;45.218;36.708;2022-12-29T04:26:41;18.08;;;8.13;;
75152;SDS011;63734;45.218;36.708;2022-12-29T04:29:39;14.00;;;7.05;;
75152;SDS011;63734;45.218;36.708;2022-12-29T04:32:04;14.02;;;6.55;;
75152;SDS011;63734;45.218;36.708;2022-12-29T04:34:33;13.75;;;6.93;;
75152;SDS011;63734;45.218;36.708;2022-12-29T04:36:59;16.67;;;6.80;;
75152;SDS011;63734;45.218;36.708;2022-12-29T04:39:27;16.25;;;7.22;;
75152;SDS011;63734;45.218;36.708;2022-12-29T04:41:53;16.52;;;7.45;;
75152;SDS011;63734;45.218;36.708;2022-12-29T04:44:20;13.90;;;5.95;;
75152;SDS011;63734;45.218;36.708;2022-12-29T04:47:21;19.00;;;7.32;;
75152;SDS011;63734;45.218;36.708;2022-12-29T04:50:00;16.92;;;7.65;;
75152;SDS011;63734;45.218;36.708;2022-12-29T04:52:32;20.65;;;8.00;;
75152;SDS011;63734;45.218;36.708;2022-12-29T04:54:58;25.30;;;9.15;;
75152;SDS011;63734;45.218;36.708;2022-12-29T04:57:24;21.20;;;8.73;;
75152;SDS011;63734;45.218;36.708;2022-12-29T04:59:54;20.75;;;8.65;;
75152;SDS011;63734;45.218;36.708;2022-12-29T05:02:21;20.40;;;8.00;;
75152;SDS011;63734;45.218;36.708;2022-12-29T05:04:49;19.58;;;8.52;;
75152;SDS011;63734;45.218;36.708;2022-12-29T05:07:15;19.38;;;8.73;;
75152;SDS011;63734;45.218;36.708;2022-12-29T05:09:43;19.00;;;7.28;;
75152;SDS011;63734;45.218;36.708;2022-12-29T05:12:09;16.58;;;7.53;;
75152;SDS011;63734;45.218;36.708;2022-12-29T05:14:43;16.85;;;7.57;;
75152;SDS011;63734;45.218;36.708;2022-12-29T05:17:09;18.05;;;7.93;;
75152;SDS011;63734;45.218;36.708;2022-12-29T05:19:35;16.60;;;7.55;;
75152;SDS011;63734;45.218;36.708;2022-12-29T05:22:02;15.88;;;7.20;;
75152;SDS011;63734;45.218;36.708;2022-12-29T05:24:29;21.30;;;8.57;;
75152;SDS011;63734;45.218;36.708;2022-12-29T05:26:56;21.25;;;8.20;;
75152;SDS011;63734;45.218;36.708;2022-12-29T05:29:40;17.27;;;7.18;;
75152;SDS011;63734;45.218;36.708;2022-12-29T05:32:07;19.83;;;7.93;;
75152;SDS011;63734;45.218;36.708;2022-12-29T05:34:33;15.40;;;7.43;;
75152;SDS011;63734;45.218;36.708;2022-12-29T05:36:59;16.20;;;7.75;;
75152;SDS011;63734;45.218;36.708;2022-12-29T05:39:27;16.48;;;7.35;;
75152;SDS011;63734;45.218;36.708;2022-12-29T05:41:57;16.70;;;8.10;;
75152;SDS011;63734;45.218;36.708;2022-12-29T05:44:29;16.63;;;7.72;;
75152;SDS011;63734;45.218;36.708;2022-12-29T05:47:21;16.38;;;7.20;;
75152;SDS011;63734;45.218;36.708;2022-12-29T05:50:19;14.43;;;6.65;;
75152;SDS011;63734;45.218;36.708;2022-12-29T05:53:21;16.58;;;6.75;;
75152;SDS011;63734;45.218;36.708;2022-12-29T05:55:47;15.80;;;6.93;;
75152;SDS011;63734;45.218;36.708;2022-12-29T05:58:14;11.38;;;5.75;;
75152;SDS011;63734;45.218;36.708;2022-12-29T06:00:40;13.70;;;6.45;;
75152;SDS011;63734;45.218;36.708;2022-12-29T06:03:07;16.13;;;7.47;;
75152;SDS011;63734;45.218;36.708;2022-12-29T06:05:33;30.23;;;12.48;;
75152;SDS011;63734;45.218;36.708;2022-12-29T06:08:00;42.42;;;16.75;;
75152;SDS011;63734;45.218;36.708;2022-12-29T06:10:26;41.10;;;16.83;;
75152;SDS011;63734;45.218;36.708;2022-12-29T06:12:57;29.17;;;12.02;;
75152;SDS011;63734;45.218;36.708;2022-12-29T06:15:23;16.95;;;8.13;;
75152;SDS011;63734;45.218;36.708;2022-12-29T06:17:49;17.02;;;8.02;;
75152;SDS011;63734;45.218;36.708;2022-12-29T06:20:16;16.95;;;7.82;;
75152;SDS011;63734;45.218;36.708;2022-12-29T06:22:42;14.52;;;7.15;;
75152;SDS011;63734;45.218;36.708;2022-12-29T06:25:11;14.75;;;7.35;;
75152;SDS011;63734;45.218;36.708;2022-12-29T06:27:39;19.42;;;7.07;;
75152;SDS011;63734;45.218;36.708;2022-12-29T06:30:05;16.63;;;7.15;;
75152;SDS011;63734;45.218;36.708;2022-12-29T06:32:32;10.45;;;4.82;;
75152;SDS011;63734;45.218;36.708;2022-12-29T06:35:04;14.65;;;6.38;;
75152;SDS011;63734;45.218;36.708;2022-12-29T06:37:34;12.60;;;5.63;;
75152;SDS011;63734;45.218;36.708;2022-12-29T06:40:00;10.85;;;5.65;;
75152;SDS011;63734;45.218;36.708;2022-12-29T06:42:40;10.45;;;5.57;;
75152;SDS011;63734;45.218;36.708;2022-12-29T06:45:32;16.42;;;6.38;;
75152;SDS011;63734;45.218;36.708;2022-12-29T06:47:58;26.02;;;10.32;;
75152;SDS011;63734;45.218;36.708;2022-12-29T06:50:24;33.35;;;16.48;;
75152;SDS011;63734;45.218;36.708;2022-12-29T06:52:50;26.65;;;11.82;;
75152;SDS011;63734;45.218;36.708;2022-12-29T06:55:16;19.83;;;9.52;;
75152;SDS011;63734;45.218;36.708;2022-12-29T06:57:42;18.83;;;8.18;;
75152;SDS011;63734;45.218;36.708;2022-12-29T07:00:08;16.80;;;8.73;;
75152;SDS011;63734;45.218;36.708;2022-12-29T07:02:34;15.43;;;8.90;;
75152;SDS011;63734;45.218;36.708;2022-12-29T07:05:00;17.70;;;9.38;;
75152;SDS011;63734;45.218;36.708;2022-12-29T07:07:26;19.02;;;9.00;;
75152;SDS011;63734;45.218;36.708;2022-12-29T07:09:52;20.73;;;9.80;;
75152;SDS011;63734;45.218;36.708;2022-12-29T07:12:18;12.80;;;6.00;;
75152;SDS011;63734;45.218;36.708;2022-12-29T07:14:44;17.92;;;8.70;;
75152;SDS011;63734;45.218;36.708;2022-12-29T07:17:10;18.20;;;9.00;;
75152;SDS011;63734;45.218;36.708;2022-12-29T07:19:36;12.55;;;6.07;;
75152;SDS011;63734;45.218;36.708;2022-12-29T07:22:02;11.45;;;6.35;;
75152;SDS011;63734;45.218;36.708;2022-12-29T07:24:27;11.45;;;6.30;;
75152;SDS011;63734;45.218;36.708;2022-12-29T07:26:55;11.85;;;5.53;;
75152;SDS011;63734;45.218;36.708;2022-12-29T07:29:20;11.32;;;5.90;;
75152;SDS011;63734;45.218;36.708;2022-12-29T07:31:47;9.30;;;4.88;;
75152;SDS011;63734;45.218;36.708;2022-12-29T07:34:12;8.95;;;4.70;;
75152;SDS011;63734;45.218;36.708;2022-12-29T07:36:38;10.98;;;4.75;;
75152;SDS011;63734;45.218;36.708;2022-12-29T07:39:04;9.15;;;4.93;;
75152;SDS011;63734;45.218;36.708;2022-12-29T07:41:30;8.55;;;4.65;;
75152;SDS011;63734;45.218;36.708;2022-12-29T07:43:58;5.90;;;3.40;;
75152;SDS011;63734;45.218;36.708;2022-12-29T07:46:44;11.20;;;5.00;;
75152;SDS011;63734;45.218;36.708;2022-12-29T07:49:10;7.80;;;4.30;;
75152;SDS011;63734;45.218;36.708;2022-12-29T07:51:36;5.50;;;3.67;;
75152;SDS011;63734;45.218;36.708;2022-12-29T07:54:02;7.85;;;4.47;;
75152;SDS011;63734;45.218;36.708;2022-12-29T07:56:28;6.55;;;4.30;;
75152;SDS011;63734;45.218;36.708;2022-12-29T07:58:54;6.65;;;3.80;;
75152;SDS011;63734;45.218;36.708;2022-12-29T08:01:20;6.05;;;3.40;;
75152;SDS011;63734;45.218;36.708;2022-12-29T08:03:48;9.18;;;4.30;;
75152;SDS011;63734;45.218;36.708;2022-12-29T08:06:14;7.93;;;4.15;;
75152;SDS011;63734;45.218;36.708;2022-12-29T08:08:40;9.05;;;4.38;;
75152;SDS011;63734;45.218;36.708;2022-12-29T08:11:06;6.03;;;3.83;;
75152;SDS011;63734;45.218;36.708;2022-12-29T08:13:32;8.50;;;5.03;;
75152;SDS011;63734;45.218;36.708;2022-12-29T08:15:58;6.75;;;4.28;;
75152;SDS011;63734;45.218;36.708;2022-12-29T08:18:24;6.70;;;3.67;;
75152;SDS011;63734;45.218;36.708;2022-12-29T08:20:50;6.10;;;3.55;;
75152;SDS011;63734;45.218;36.708;2022-12-29T08:23:16;5.93;;;3.38;;
75152;SDS011;63734;45.218;36.708;2022-12-29T08:25:42;6.38;;;3.83;;
75152;SDS011;63734;45.218;36.708;2022-12-29T08:28:08;7.45;;;3.95;;
75152;SDS011;63734;45.218;36.708;2022-12-29T08:30:35;9.52;;;4.13;;
75152;SDS011;63734;45.218;36.708;2022-12-29T08:33:01;9.50;;;4.00;;
75152;SDS011;63734;45.218;36.708;2022-12-29T08:35:27;8.13;;;3.85;;
75152;SDS011;63734;45.218;36.708;2022-12-29T08:37:53;8.02;;;4.88;;
75152;SDS011;63734;45.218;36.708;2022-12-29T08:40:19;8.60;;;4.45;;
75152;SDS011;63734;45.218;36.708;2022-12-29T08:42:45;7.60;;;3.97;;
75152;SDS011;63734;45.218;36.708;2022-12-29T08:45:11;7.50;;;4.20;;
75152;SDS011;63734;45.218;36.708;2022-12-29T08:47:37;10.15;;;4.65;;
75152;SDS011;63734;45.218;36.708;2022-12-29T08:50:03;9.13;;;4.15;;
75152;SDS011;63734;45.218;36.708;2022-12-29T08:52:29;14.82;;;4.32;;
75152;SDS011;63734;45.218;36.708;2022-12-29T08:54:55;7.93;;;4.55;;
75152;SDS011;63734;45.218;36.708;2022-12-29T08:57:21;7.05;;;4.10;;
75152;SDS011;63734;45.218;36.708;2022-12-29T09:00:22;7.25;;;4.13;;
75152;SDS011;63734;45.218;36.708;2022-12-29T09:02:49;8.05;;;5.10;;
75152;SDS011;63734;45.218;36.708;2022-12-29T09:05:15;14.30;;;5.82;;
75152;SDS011;63734;45.218;36.708;2022-12-29T09:07:41;7.55;;;4.05;;
75152;SDS011;63734;45.218;36.708;2022-12-29T09:10:07;8.13;;;4.55;;
75152;SDS011;63734;45.218;36.708;2022-12-29T09:12:33;8.05;;;4.40;;
75152;SDS011;63734;45.218;36.708;2022-12-29T09:14:59;10.63;;;5.18;;
75152;SDS011;63734;45.218;36.708;2022-12-29T09:17:25;10.90;;;5.72;;
75152;SDS011;63734;45.218;36.708;2022-12-29T09:20:07;7.88;;;4.30;;
75152;SDS011;63734;45.218;36.708;2022-12-29T09:22:34;10.57;;;4.75;;
75152;SDS011;63734;45.218;36.708;2022-12-29T09:25:01;9.77;;;5.13;;
75152;SDS011;63734;45.218;36.708;2022-12-29T09:27:28;9.93;;;4.85;;
75152;SDS011;63734;45.218;36.708;2022-12-29T09:29:55;8.45;;;4.70;;
75152;SDS011;63734;45.218;36.708;2022-12-29T09:32:21;9.73;;;4.97;;
75152;SDS011;63734;45.218;36.708;2022-12-29T09:34:47;8.48;;;4.80;;
75152;SDS011;63734;45.218;36.708;2022-12-29T09:37:14;8.27;;;4.22;;
75152;SDS011;63734;45.218;36.708;2022-12-29T09:39:40;3.58;;;2.55;;
75152;SDS011;63734;45.218;36.708;2022-12-29T09:42:19;8.70;;;4.90;;
75152;SDS011;63734;45.218;36.708;2022-12-29T09:45:05;5.72;;;3.63;;
75152;SDS011;63734;45.218;36.708;2022-12-29T09:47:53;9.45;;;4.70;;
75152;SDS011;63734;45.218;36.708;2022-12-29T09:50:29;6.68;;;3.38;;
75152;SDS011;63734;45.218;36.708;2022-12-29T09:55:38;8.85;;;5.28;;
75152;SDS011;63734;45.218;36.708;2022-12-29T09:58:10;11.55;;;5.65;;
75152;SDS011;63734;45.218;36.708;2022-12-29T10:00:47;11.38;;;5.53;;
75152;SDS011;63734;45.218;36.708;2022-12-29T10:03:41;8.15;;;3.92;;
75152;SDS011;63734;45.218;36.708;2022-12-29T10:06:23;10.32;;;4.60;;
75152;SDS011;63734;45.218;36.708;2022-12-29T10:09:22;7.60;;;3.88;;
75152;SDS011;63734;45.218;36.708;2022-12-29T10:20:23;3.92;;;2.90;;
75152;SDS011;63734;45.218;36.708;2022-12-29T10:25:47;14.35;;;7.40;;
75152;SDS011;63734;45.218;36.708;2022-12-29T10:28:19;15.50;;;6.13;;
75152;SDS011;63734;45.218;36.708;2022-12-29T10:30:55;10.60;;;5.38;;
75152;SDS011;63734;45.218;36.708;2022-12-29T10:33:28;7.55;;;3.53;;
75152;SDS011;63734;45.218;36.708;2022-12-29T10:36:02;7.45;;;3.50;;
75152;SDS011;63734;45.218;36.708;2022-12-29T10:38:40;11.57;;;4.55;;
75152;SDS011;63734;45.218;36.708;2022-12-29T10:41:36;8.65;;;4.03;;
75152;SDS011;63734;45.218;36.708;2022-12-29T10:44:07;7.25;;;3.92;;
75152;SDS011;63734;45.218;36.708;2022-12-29T10:46:38;6.32;;;3.40;;
75152;SDS011;63734;45.218;36.708;2022-12-29T10:49:06;5.03;;;3.17;;
75152;SDS011;63734;45.218;36.708;2022-12-29T10:51:38;7.03;;;3.85;;
75152;SDS011;63734;45.218;36.708;2022-12-29T10:56:53;8.70;;;3.78;;
75152;SDS011;63734;45.218;36.708;2022-12-29T10:59:23;7.22;;;3.17;;
75152;SDS011;63734;45.218;36.708;2022-12-29T11:07:22;4.97;;;2.95;;
75152;SDS011;63734;45.218;36.708;2022-12-29T11:09:48;6.97;;;3.63;;
75152;SDS011;63734;45.218;36.708;2022-12-29T11:12:25;7.60;;;2.78;;
75152;SDS011;63734;45.218;36.708;2022-12-29T11:15:26;7.45;;;3.75;;
75152;SDS011;63734;45.218;36.708;2022-12-29T11:18:03;6.07;;;2.72;;
75152;SDS011;63734;45.218;36.708;2022-12-29T11:23:01;2.28;;;1.17;;
75152;SDS011;63734;45.218;36.708;2022-12-29T11:25:28;1.05;;;0.85;;
75152;SDS011;63734;45.218;36.708;2022-12-29T11:27:55;0.90;;;0.77;;
75152;SDS011;63734;45.218;36.708;2022-12-29T11:30:22;0.90;;;0.80;;
75152;SDS011;63734;45.218;36.708;2022-12-29T11:32:51;7.32;;;2.83;;
75152;SDS011;63734;45.218;36.708;2022-12-29T11:37:59;2.08;;;0.60;;
75152;SDS011;63734;45.218;36.708;2022-12-29T11:40:27;0.73;;;0.68;;
75152;SDS011;63734;45.218;36.708;2022-12-29T11:42:55;0.70;;;0.70;;
75152;SDS011;63734;45.218;36.708;2022-12-29T11:45:30;1.77;;;0.73;;
75152;SDS011;63734;45.218;36.708;2022-12-29T11:48:06;1.58;;;0.60;;
75152;SDS011;63734;45.218;36.708;2022-12-29T11:50:39;0.75;;;0.70;;
75152;SDS011;63734;45.218;36.708;2022-12-29T11:55:53;2.35;;;1.00;;
75152;SDS011;63734;45.218;36.708;2022-12-29T11:58:33;1.00;;;0.80;;
75152;SDS011;63734;45.218;36.708;2022-12-29T12:01:02;0.90;;;0.70;;
75152;SDS011;63734;45.218;36.708;2022-12-29T12:03:44;2.15;;;0.65;;
75152;SDS011;63734;45.218;36.708;2022-12-29T12:06:15;2.57;;;1.00;;
75152;SDS011;63734;45.218;36.708;2022-12-29T12:08:46;2.97;;;0.73;;
75152;SDS011;63734;45.218;36.708;2022-12-29T12:11:18;2.60;;;0.90;;
75152;SDS011;63734;45.218;36.708;2022-12-29T12:13:59;0.80;;;0.60;;
75152;SDS011;63734;45.218;36.708;2022-12-29T12:16:50;2.20;;;0.57;;
75152;SDS011;63734;45.218;36.708;2022-12-29T12:21:55;1.50;;;0.80;;
75152;SDS011;63734;45.218;36.708;2022-12-29T12:24:41;1.48;;;0.52;;
75152;SDS011;63734;45.218;36.708;2022-12-29T12:30:36;1.30;;;0.80;;
75152;SDS011;63734;45.218;36.708;2022-12-29T12:33:27;1.75;;;0.88;;
75152;SDS011;63734;45.218;36.708;2022-12-29T12:38:56;0.90;;;0.63;;
75152;SDS011;63734;45.218;36.708;2022-12-29T12:44:12;2.03;;;0.85;;
75152;SDS011;63734;45.218;36.708;2022-12-29T12:52:24;0.65;;;0.65;;
75152;SDS011;63734;45.218;36.708;2022-12-29T13:08:11;8.13;;;3.17;;
75152;SDS011;63734;45.218;36.708;2022-12-29T13:14:00;6.47;;;2.75;;
75152;SDS011;63734;45.218;36.708;2022-12-29T13:25:18;37.13;;;13.80;;
75152;SDS011;63734;45.218;36.708;2022-12-29T13:28:10;12.27;;;5.32;;
75152;SDS011;63734;45.218;36.708;2022-12-29T13:36:40;3.60;;;1.50;;
75152;SDS011;63734;45.218;36.708;2022-12-29T13:39:13;2.97;;;0.98;;
75152;SDS011;63734;45.218;36.708;2022-12-29T13:41:53;1.98;;;1.02;;
75152;SDS011;63734;45.218;36.708;2022-12-29T13:44:25;0.75;;;0.63;;
75152;SDS011;63734;45.218;36.708;2022-12-29T13:49:51;2.00;;;0.82;;
75152;SDS011;63734;45.218;36.708;2022-12-29T13:52:25;3.40;;;1.10;;
75152;SDS011;63734;45.218;36.708;2022-12-29T14:00:31;26.60;;;7.97;;
75152;SDS011;63734;45.218;36.708;2022-12-29T14:03:11;18.27;;;6.10;;
75152;SDS011;63734;45.218;36.708;2022-12-29T14:06:11;9.05;;;3.42;;
75152;SDS011;63734;45.218;36.708;2022-12-29T14:08:41;6.22;;;2.72;;
75152;SDS011;63734;45.218;36.708;2022-12-29T14:11:10;3.72;;;1.67;;
75152;SDS011;63734;45.218;36.708;2022-12-29T14:13:40;3.63;;;1.20;;
75152;SDS011;63734;45.218;36.708;2022-12-29T14:16:11;3.78;;;2.10;;
75152;SDS011;63734;45.218;36.708;2022-12-29T14:18:51;2.80;;;2.00;;
75152;SDS011;63734;45.218;36.708;2022-12-29T14:21:23;7.25;;;1.73;;
75152;SDS011;63734;45.218;36.708;2022-12-29T14:24:00;5.35;;;1.40;;
75152;SDS011;63734;45.218;36.708;2022-12-29T14:39:52;2.85;;;2.00;;
75152;SDS011;63734;45.218;36.708;2022-12-29T14:42:34;2.67;;;1.70;;
75152;SDS011;63734;45.218;36.708;2022-12-29T14:49:55;4.53;;;1.95;;
75152;SDS011;63734;45.218;36.708;2022-12-29T14:52:53;3.70;;;1.83;;
75152;SDS011;63734;45.218;36.708;2022-12-29T14:57:57;2.38;;;1.70;;
75152;SDS011;63734;45.218;36.708;2022-12-29T15:00:27;5.70;;;2.43;;
75152;SDS011;63734;45.218;36.708;2022-12-29T15:05:46;4.93;;;1.83;;
75152;SDS011;63734;45.218;36.708;2022-12-29T15:08:17;4.72;;;2.05;;
75152;SDS011;63734;45.218;36.708;2022-12-29T15:10:57;1.83;;;1.45;;
75152;SDS011;63734;45.218;36.708;2022-12-29T15:13:34;3.72;;;1.65;;
75152;SDS011;63734;45.218;36.708;2022-12-29T15:16:03;3.67;;;1.90;;
75152;SDS011;63734;45.218;36.708;2022-12-29T15:18:30;4.22;;;1.48;;
75152;SDS011;63734;45.218;36.708;2022-12-29T15:20:59;4.25;;;1.50;;
75152;SDS011;63734;45.218;36.708;2022-12-29T15:23:28;3.38;;;1.52;;
75152;SDS011;63734;45.218;36.708;2022-12-29T15:26:01;2.50;;;1.67;;
75152;SDS011;63734;45.218;36.708;2022-12-29T15:28:40;2.72;;;2.08;;
75152;SDS011;63734;45.218;36.708;2022-12-29T15:31:12;8.05;;;2.10;;
75152;SDS011;63734;45.218;36.708;2022-12-29T15:33:47;19.80;;;10.82;;
75152;SDS011;63734;45.218;36.708;2022-12-29T15:36:22;15.98;;;8.77;;
75152;SDS011;63734;45.218;36.708;2022-12-29T15:38:52;11.65;;;6.40;;
75152;SDS011;63734;45.218;36.708;2022-12-29T15:44:54;7.28;;;3.33;;
75152;SDS011;63734;45.218;36.708;2022-12-29T15:47:01;2.45;;;1.65;;
75152;SDS011;63734;45.218;36.708;2022-12-29T15:49:32;5.80;;;2.75;;
75152;SDS011;63734;45.218;36.708;2022-12-29T15:51:58;5.13;;;2.28;;
75152;SDS011;63734;45.218;36.708;2022-12-29T15:54:24;8.05;;;2.47;;
75152;SDS011;63734;45.218;36.708;2022-12-29T15:56:58;7.13;;;3.60;;
75152;SDS011;63734;45.218;36.708;2022-12-29T15:59:29;6.50;;;4.28;;
75152;SDS011;63734;45.218;36.708;2022-12-29T16:02:00;7.10;;;3.85;;
75152;SDS011;63734;45.218;36.708;2022-12-29T16:04:29;7.03;;;3.20;;
75152;SDS011;63734;45.218;36.708;2022-12-29T16:06:59;3.70;;;2.45;;
75152;SDS011;63734;45.218;36.708;2022-12-29T16:09:31;5.03;;;2.85;;
75152;SDS011;63734;45.218;36.708;2022-12-29T16:12:03;4.60;;;2.28;;
75152;SDS011;63734;45.218;36.708;2022-12-29T16:17:04;3.80;;;2.60;;
75152;SDS011;63734;45.218;36.708;2022-12-29T16:19:35;6.97;;;2.40;;
75152;SDS011;63734;45.218;36.708;2022-12-29T16:22:09;5.45;;;3.10;;
75152;SDS011;63734;45.218;36.708;2022-12-29T16:24:39;4.25;;;3.30;;
75152;SDS011;63734;45.218;36.708;2022-12-29T16:29:35;5.93;;;2.85;;
75152;SDS011;63734;45.218;36.708;2022-12-29T16:32:01;4.57;;;2.20;;
75152;SDS011;63734;45.218;36.708;2022-12-29T16:34:30;5.60;;;2.45;;
75152;SDS011;63734;45.218;36.708;2022-12-29T16:39:55;7.22;;;4.13;;
75152;SDS011;63734;45.218;36.708;2022-12-29T16:50:34;9.40;;;3.42;;
75152;SDS011;63734;45.218;36.708;2022-12-29T16:53:03;9.13;;;4.07;;
75152;SDS011;63734;45.218;36.708;2022-12-29T16:55:31;7.30;;;3.63;;
75152;SDS011;63734;45.218;36.708;2022-12-29T16:57:58;5.93;;;3.65;;
75152;SDS011;63734;45.218;36.708;2022-12-29T17:00:26;4.60;;;3.35;;
75152;SDS011;63734;45.218;36.708;2022-12-29T17:02:57;9.50;;;3.70;;
75152;SDS011;63734;45.218;36.708;2022-12-29T17:05:25;8.60;;;3.08;;
75152;SDS011;63734;45.218;36.708;2022-12-29T17:07:51;7.05;;;2.90;;
75152;SDS011;63734;45.218;36.708;2022-12-29T17:10:18;6.15;;;3.60;;
75152;SDS011;63734;45.218;36.708;2022-12-29T17:12:45;3.95;;;2.28;;
75152;SDS011;63734;45.218;36.708;2022-12-29T17:15:15;6.32;;;2.63;;
75152;SDS011;63734;45.218;36.708;2022-12-29T17:17:47;5.10;;;3.20;;
75152;SDS011;63734;45.218;36.708;2022-12-29T17:20:16;3.03;;;2.33;;
75152;SDS011;63734;45.218;36.708;2022-12-29T17:22:45;4.38;;;2.60;;
75152;SDS011;63734;45.218;36.708;2022-12-29T17:25:16;4.45;;;2.60;;
75152;SDS011;63734;45.218;36.708;2022-12-29T17:27:51;5.70;;;2.53;;
75152;SDS011;63734;45.218;36.708;2022-12-29T17:30:24;6.22;;;2.45;;
75152;SDS011;63734;45.218;36.708;2022-12-29T17:32:53;5.05;;;2.58;;
75152;SDS011;63734;45.218;36.708;2022-12-29T17:35:24;6.18;;;2.42;;
75152;SDS011;63734;45.218;36.708;2022-12-29T17:37:51;8.48;;;5.05;;
75152;SDS011;63734;45.218;36.708;2022-12-29T17:40:19;2.88;;;1.98;;